Time;durP1;ratioP1;P1;durP2;ratioP2;P2;SDS_P1;SDS_P2;PMS_P1;PMS_P2;Temp;Humidity;BMP_temperature;BMP_pressure;BME280_temperature;BME280_humidity;BME280_pressure;Samples;Min_cycle;Max_cycle;Signal;HPM_P1;HPM_P2
2021/03/07 00:00:54;;;;;;;289.30;123.07;;;0.60;84.90;;;;;;5092506;28;20025;-63
2021/03/07 00:03:20;;;;;;;256.83;112.23;;;0.40;86.10;;;;;;5092554;28;20032;-64
2021/03/07 00:05:46;;;;;;;250.50;111.47;;;0.40;87.10;;;;;;5093872;28;20024;-63
2021/03/07 00:08:11;;;;;;;313.33;131.40;;;0.30;85.70;;;;;;5093782;28;20032;-63
2021/03/07 00:10:37;;;;;;;281.33;119.10;;;0.20;86.80;;;;;;5093970;28;20182;-64
2021/03/07 00:13:03;;;;;;;297.23;125.60;;;0.20;87.20;;;;;;5093509;28;20063;-64
2021/03/07 00:15:29;;;;;;;270.53;118.63;;;0.20;87.00;;;;;;5093385;28;20027;-63
2021/03/07 00:17:55;;;;;;;270.80;117.60;;;0.20;87.10;;;;;;5093640;28;20024;-64
2021/03/07 00:20:22;;;;;;;246.70;112.93;;;0.20;87.00;;;;;;5093822;28;20028;-63
2021/03/07 00:22:49;;;;;;;231.30;106.80;;;0.30;86.80;;;;;;5093593;28;20028;-64
2021/03/07 00:25:17;;;;;;;202.77;90.13;;;0.30;86.70;;;;;;5093578;28;20031;-63
2021/03/07 00:27:43;;;;;;;210.83;99.40;;;0.30;86.30;;;;;;5093344;28;20028;-65
2021/03/07 00:30:11;;;;;;;188.70;82.57;;;0.20;86.90;;;;;;5093782;28;20571;-63
2021/03/07 00:32:37;;;;;;;186.23;80.27;;;0.30;86.70;;;;;;5093159;28;20032;-63
2021/03/07 00:35:04;;;;;;;185.73;81.73;;;0.20;86.40;;;;;;5093465;28;20036;-63
2021/03/07 00:37:31;;;;;;;190.13;82.77;;;0.20;86.50;;;;;;5093609;28;20454;-63
2021/03/07 00:39:56;;;;;;;163.23;77.47;;;0.30;86.00;;;;;;5093590;28;20032;-64
2021/03/07 00:42:22;;;;;;;138.70;63.50;;;0.20;86.00;;;;;;5093281;28;20036;-63
2021/03/07 00:44:48;;;;;;;150.47;69.37;;;0.20;85.90;;;;;;5091986;28;20364;-63
2021/03/07 00:47:15;;;;;;;171.93;76.47;;;0.20;85.80;;;;;;5093254;28;20020;-64
2021/03/07 00:49:41;;;;;;;141.93;65.97;;;0.10;86.30;;;;;;5093248;28;20020;-65
2021/03/07 00:52:07;;;;;;;155.17;70.00;;;0.10;86.40;;;;;;5092852;28;20048;-65
2021/03/07 00:54:33;;;;;;;150.33;68.57;;;0.00;86.30;;;;;;5091843;28;20039;-64
2021/03/07 00:56:59;;;;;;;161.60;73.13;;;-0.10;87.10;;;;;;5093156;28;20024;-64
2021/03/07 00:59:25;;;;;;;150.03;65.67;;;0.00;86.90;;;;;;5092812;28;20036;-65
2021/03/07 01:01:51;;;;;;;156.47;70.17;;;0.00;86.50;;;;;;5091829;28;20059;-63
2021/03/07 01:04:17;;;;;;;165.27;73.60;;;-0.10;86.80;;;;;;5093157;28;20064;-62
2021/03/07 01:06:43;;;;;;;146.30;64.57;;;;;;;;;;5091781;28;20603;-63
2021/03/07 01:09:09;;;;;;;143.17;60.50;;;-0.10;87.00;;;;;;5091793;28;20406;-63
2021/03/07 01:11:35;;;;;;;124.93;56.37;;;-0.10;87.30;;;;;;5091701;28;20060;-63
2021/03/07 01:14:03;;;;;;;115.83;56.53;;;-0.10;87.50;;;;;;5093040;28;20028;-62
2021/03/07 01:16:29;;;;;;;123.20;54.70;;;-0.20;87.40;;;;;;5093046;28;20024;-63
2021/03/07 01:18:55;;;;;;;113.03;51.73;;;-0.10;87.60;;;;;;5092970;28;20031;-63
2021/03/07 01:21:21;;;;;;;119.73;54.60;;;;;;;;;;5091505;28;20482;-63
2021/03/07 01:23:47;;;;;;;128.00;58.63;;;0.00;86.70;;;;;;5092992;28;20551;-63
2021/03/07 01:26:12;;;;;;;117.07;53.87;;;-0.10;85.70;;;;;;5092958;28;20214;-63
2021/03/07 01:28:38;;;;;;;113.17;55.30;;;-0.10;85.80;;;;;;5092957;28;20465;-63
2021/03/07 01:31:04;;;;;;;118.63;57.73;;;0.00;87.10;;;;;;5092822;28;20085;-63
2021/03/07 01:33:30;;;;;;;117.73;52.57;;;-0.10;87.60;;;;;;5093167;28;20032;-64
2021/03/07 01:36:02;;;;;;;107.50;50.30;;;-0.20;87.20;;;;;;5092826;28;20028;-63
2021/03/07 01:38:28;;;;;;;104.78;48.90;;;-0.20;86.30;;;;;;5094236;28;20020;-64
2021/03/07 01:40:55;;;;;;;98.30;46.27;;;-0.20;86.40;;;;;;5096542;28;20525;-64
2021/03/07 01:43:22;;;;;;;105.73;47.50;;;-0.10;85.90;;;;;;5096685;28;20028;-63
2021/03/07 01:45:48;;;;;;;101.27;46.20;;;-0.10;85.60;;;;;;5096577;28;20081;-63
2021/03/07 01:48:15;;;;;;;94.47;43.27;;;-0.10;85.50;;;;;;5096127;28;20028;-63
2021/03/07 01:50:50;;;;;;;91.93;42.07;;;-0.10;85.00;;;;;;5096736;28;20076;-63
2021/03/07 01:53:17;;;;;;;109.87;48.77;;;-0.10;85.90;;;;;;5096486;28;20075;-63
2021/03/07 01:55:43;;;;;;;104.87;48.90;;;-0.10;86.80;;;;;;5095023;28;20107;-64
2021/03/07 01:58:18;;;;;;;116.13;53.50;;;-0.20;86.30;;;;;;5096619;28;20031;-64
2021/03/07 02:00:45;;;;;;;125.13;58.57;;;-0.20;86.70;;;;;;5096374;28;20016;-64
2021/03/07 02:03:11;;;;;;;124.10;59.60;;;-0.20;88.40;;;;;;5096172;28;20036;-62
2021/03/07 02:05:37;;;;;;;124.53;57.10;;;-0.30;88.70;;;;;;5096180;28;20107;-63
2021/03/07 02:08:04;;;;;;;123.80;54.70;;;-0.40;89.50;;;;;;5096091;28;20492;-63
2021/03/07 02:10:32;;;;;;;110.83;52.67;;;-0.40;89.50;;;;;;5096118;28;20020;-62
2021/03/07 02:13:02;;;;;;;111.80;50.20;;;-0.40;89.40;;;;;;5096052;28;20477;-64
2021/03/07 02:15:32;;;;;;;112.30;52.70;;;-0.30;87.00;;;;;;5094686;28;20035;-64
2021/03/07 02:17:58;;;;;;;110.90;51.03;;;-0.30;85.70;;;;;;5095969;28;20024;-64
2021/03/07 02:20:26;;;;;;;119.97;52.03;;;-0.30;85.80;;;;;;5095918;28;20440;-64
2021/03/07 02:23:06;;;;;;;119.07;55.33;;;-0.30;85.60;;;;;;5095855;28;20050;-64
2021/03/07 02:25:32;;;;;;;134.13;59.17;;;-0.30;85.60;;;;;;5095893;28;20419;-64
2021/03/07 02:27:59;;;;;;;133.30;60.43;;;-0.40;85.00;;;;;;5095855;28;20112;-64
2021/03/07 02:30:26;;;;;;;127.60;59.07;;;-0.50;85.10;;;;;;5094381;28;20032;-63
2021/03/07 02:33:25;;;;;;;123.63;55.03;;;-0.60;85.20;;;;;;5095713;28;20028;-64
2021/03/07 02:36:26;;;;;;;132.67;59.43;;;-0.70;85.60;;;;;;5095688;28;20459;-63
2021/03/07 02:38:54;;;;;;;133.85;58.75;;;-0.80;86.70;;;;;;5095580;28;20027;-64
2021/03/07 02:41:21;;;;;;;121.70;57.07;;;-0.80;87.50;;;;;;5094146;28;20036;-64
2021/03/07 02:43:52;;;;;;;132.47;60.80;;;-0.80;87.80;;;;;;5095505;28;20103;-63
2021/03/07 02:46:19;;;;;;;130.60;57.55;;;-0.80;86.70;;;;;;5095485;28;20110;-64
2021/03/07 02:48:52;;;;;;;130.53;58.63;;;-0.80;86.60;;;;;;5095247;28;20030;-62
2021/03/07 02:51:18;;;;;;;142.50;61.73;;;-0.80;85.80;;;;;;5095292;28;20510;-63
2021/03/07 02:53:44;;;;;;;162.70;71.47;;;-0.80;86.60;;;;;;5094024;28;20051;-63
2021/03/07 02:56:14;;;;;;;161.77;72.40;;;-0.80;87.00;;;;;;5095569;28;20026;-63
2021/03/07 02:58:41;;;;;;;154.10;70.40;;;-0.80;88.80;;;;;;5095240;28;20445;-62
2021/03/07 03:01:10;;;;;;;177.43;76.47;;;-0.80;89.20;;;;;;5095330;28;20447;-63
2021/03/07 03:03:40;;;;;;;154.27;70.63;;;-0.80;88.60;;;;;;5095126;28;20028;-63
2021/03/07 03:06:08;;;;;;;178.57;78.57;;;-0.80;87.90;;;;;;5095024;28;20052;-63
2021/03/07 03:08:35;;;;;;;140.10;64.50;;;-0.80;88.80;;;;;;5093672;28;20028;-63
2021/03/07 03:11:03;;;;;;;150.37;68.50;;;-0.90;89.60;;;;;;5094940;28;20028;-63
2021/03/07 03:13:32;;;;;;;154.17;68.80;;;-0.90;90.20;;;;;;5094983;28;20115;-63
2021/03/07 03:15:59;;;;;;;184.03;83.00;;;-0.90;89.00;;;;;;5094796;28;20450;-63
2021/03/07 03:18:28;;;;;;;155.20;70.90;;;-0.80;88.80;;;;;;5094813;28;20024;-63
2021/03/07 03:20:57;;;;;;;162.20;74.80;;;-0.70;88.20;;;;;;5093386;28;20028;-63
2021/03/07 03:23:24;;;;;;;156.33;70.70;;;-0.80;88.50;;;;;;5094981;28;20046;-64
2021/03/07 03:25:51;;;;;;;145.70;67.90;;;-0.80;88.00;;;;;;5094640;28;20112;-64
2021/03/07 03:28:20;;;;;;;162.67;68.10;;;-0.80;88.80;;;;;;5094686;28;20063;-63
2021/03/07 03:30:46;;;;;;;146.47;62.23;;;-0.90;89.20;;;;;;5094782;28;20024;-66
2021/03/07 03:33:12;;;;;;;143.57;62.07;;;-0.80;88.70;;;;;;5094300;28;20365;-64
2021/03/07 03:35:38;;;;;;;111.03;50.47;;;-0.90;88.60;;;;;;5093120;28;20411;-65
2021/03/07 03:38:04;;;;;;;94.00;43.40;;;-0.80;90.40;;;;;;5094422;28;20028;-67
2021/03/07 03:40:32;;;;;;;98.77;43.90;;;-0.70;90.00;;;;;;5094397;28;20481;-66
2021/03/07 03:43:03;;;;;;;118.67;48.70;;;-0.60;89.60;;;;;;5092991;28;20119;-65
2021/03/07 03:45:31;;;;;;;116.63;50.90;;;-0.70;88.70;;;;;;5094122;28;20463;-66
2021/03/07 03:48:01;;;;;;;103.47;48.63;;;-0.70;87.80;;;;;;5094243;28;20471;-66
2021/03/07 03:50:29;;;;;;;113.90;51.67;;;-0.60;88.00;;;;;;5092962;28;20081;-65
2021/03/07 03:52:58;;;;;;;124.23;52.07;;;-0.70;86.60;;;;;;5093733;28;20108;-65
2021/03/07 03:55:28;;;;;;;104.93;47.50;;;-0.60;86.10;;;;;;5094353;28;20467;-65
2021/03/07 03:58:01;;;;;;;104.70;49.70;;;-0.70;86.30;;;;;;5094029;28;20038;-65
2021/03/07 04:00:27;;;;;;;95.10;44.30;;;-0.80;86.00;;;;;;5093745;28;20032;-66
2021/03/07 04:02:57;;;;;;;93.63;42.57;;;-0.80;90.20;;;;;;5092257;28;20039;-66
2021/03/07 04:05:26;;;;;;;94.37;44.10;;;-0.80;88.80;;;;;;5092618;28;20036;-67
2021/03/07 04:07:52;;;;;;;103.30;48.23;;;-0.70;89.00;;;;;;5093919;28;20020;-66
2021/03/07 04:10:19;;;;;;;103.03;46.23;;;-0.80;87.40;;;;;;5093777;28;20024;-65
2021/03/07 04:12:48;;;;;;;98.10;46.00;;;-0.70;87.00;;;;;;5093804;28;20024;-68
2021/03/07 04:15:18;;;;;;;86.17;38.57;;;-0.70;87.40;;;;;;5092204;28;20046;-66
2021/03/07 04:17:45;;;;;;;85.23;40.33;;;-0.70;86.50;;;;;;5093921;28;20027;-66
2021/03/07 04:20:12;;;;;;;90.37;42.00;;;-0.70;86.20;;;;;;5093745;28;20027;-65
2021/03/07 04:22:39;;;;;;;80.43;39.37;;;-0.80;86.00;;;;;;5093587;28;20467;-65
2021/03/07 04:25:06;;;;;;;66.03;33.97;;;-0.80;86.30;;;;;;5093687;28;20534;-65
2021/03/07 04:27:33;;;;;;;64.97;32.03;;;-0.80;87.10;;;;;;5093858;28;20027;-64
2021/03/07 04:30:00;;;;;;;56.07;27.90;;;-0.70;88.10;;;;;;5093534;28;20024;-65
2021/03/07 04:32:27;;;;;;;59.57;29.07;;;-0.70;89.50;;;;;;5093484;28;20036;-65
2021/03/07 04:34:53;;;;;;;60.60;28.70;;;-0.70;89.40;;;;;;5093530;28;20032;-64
2021/03/07 04:37:19;;;;;;;53.90;29.10;;;-0.60;90.00;;;;;;5093467;28;20032;-65
2021/03/07 04:39:45;;;;;;;55.07;29.33;;;-0.60;89.80;;;;;;5092077;28;20032;-64
2021/03/07 04:42:11;;;;;;;53.67;27.03;;;-0.60;89.80;;;;;;5091683;28;20028;-64
2021/03/07 04:44:38;;;;;;;60.47;28.50;;;-0.60;89.60;;;;;;5093349;28;20092;-66
2021/03/07 04:47:04;;;;;;;60.27;29.00;;;-0.60;89.50;;;;;;5093321;28;20486;-64
2021/03/07 04:49:30;;;;;;;60.23;29.67;;;-0.60;88.80;;;;;;5093004;28;20154;-65
2021/03/07 04:51:55;;;;;;;61.03;28.17;;;-0.60;88.30;;;;;;5092972;28;20127;-64
2021/03/07 04:54:21;;;;;;;54.87;28.00;;;-0.60;88.10;;;;;;5093170;28;20039;-64
2021/03/07 04:56:47;;;;;;;65.37;28.97;;;-0.60;87.90;;;;;;5093239;28;20532;-64
2021/03/07 04:59:14;;;;;;;61.43;29.83;;;-0.80;88.60;;;;;;5093167;28;20058;-66
2021/03/07 05:01:40;;;;;;;64.63;32.33;;;-0.80;89.80;;;;;;5093104;28;20028;-65
2021/03/07 05:04:06;;;;;;;66.77;33.47;;;-0.90;90.20;;;;;;5093146;28;20032;-66
2021/03/07 05:06:39;;;;;;;76.10;33.83;;;-0.90;90.30;;;;;;5092803;28;20024;-65
2021/03/07 05:09:09;;;;;;;81.03;40.43;;;-0.90;90.30;;;;;;5091808;28;20128;-67
2021/03/07 05:11:36;;;;;;;83.17;37.77;;;-0.80;91.20;;;;;;5093100;28;20115;-66
2021/03/07 05:14:03;;;;;;;77.70;37.77;;;-0.80;90.60;;;;;;5095172;28;20081;-68
2021/03/07 05:16:29;;;;;;;83.33;39.80;;;-0.70;90.30;;;;;;5097175;28;20058;-67
2021/03/07 05:18:56;;;;;;;85.83;41.53;;;-0.70;90.80;;;;;;5095804;28;20024;-66
2021/03/07 05:21:22;;;;;;;78.33;39.97;;;-0.70;90.70;;;;;;5095741;28;20051;-67
2021/03/07 05:23:49;;;;;;;75.37;38.17;;;-0.70;90.80;;;;;;5095771;28;20097;-65
2021/03/07 05:26:15;;;;;;;75.10;37.63;;;-0.70;91.10;;;;;;5097001;28;20028;-66
2021/03/07 05:28:40;;;;;;;77.73;36.83;;;-0.70;90.60;;;;;;5096911;28;20573;-68
2021/03/07 05:31:06;;;;;;;84.93;40.27;;;-0.70;90.30;;;;;;5096854;28;20103;-66
2021/03/07 05:33:32;;;;;;;84.63;41.60;;;-0.70;90.70;;;;;;5096799;28;20097;-68
2021/03/07 05:35:58;;;;;;;86.67;38.30;;;-0.60;90.60;;;;;;5096788;28;20035;-68
2021/03/07 05:38:24;;;;;;;83.43;39.07;;;-0.50;90.80;;;;;;5096996;28;20077;-66
2021/03/07 05:40:50;;;;;;;87.30;41.70;;;-0.50;90.90;;;;;;5096675;28;20020;-68
2021/03/07 05:43:18;;;;;;;89.37;41.83;;;-0.50;90.30;;;;;;5096560;28;20036;-69
2021/03/07 05:45:45;;;;;;;102.17;41.63;;;-0.50;90.20;;;;;;5096644;28;20063;-68
2021/03/07 05:48:11;;;;;;;88.83;41.10;;;-0.60;90.70;;;;;;5096793;28;20111;-70
2021/03/07 05:50:37;;;;;;;90.97;43.30;;;-0.50;92.20;;;;;;5095133;28;20110;-64
2021/03/07 05:53:03;;;;;;;95.70;46.80;;;-0.30;93.10;;;;;;5096547;28;20044;-65
2021/03/07 05:55:29;;;;;;;98.57;49.57;;;-0.20;93.70;;;;;;5089809;28;20028;-65
2021/03/07 05:58:00;;;;;;;92.37;45.70;;;-0.20;93.70;;;;;;5077913;28;20020;-67
2021/03/07 06:00:27;;;;;;;103.85;49.58;;;-0.20;94.70;;;;;;5077834;28;20032;-65
2021/03/07 06:02:53;;;;;;;116.30;52.73;;;-0.20;94.30;;;;;;5083481;28;20038;-68
2021/03/07 06:05:19;;;;;;;110.23;52.00;;;-0.30;94.20;;;;;;5076015;28;20029;-67
2021/03/07 06:07:47;;;;;;;113.60;49.47;;;-0.30;94.70;;;;;;5075903;28;20027;-66
2021/03/07 06:10:19;;;;;;;116.30;50.43;;;-0.20;95.10;;;;;;5074604;28;20386;-68
2021/03/07 06:13:09;;;;;;;;;;;-0.20;95.00;;;;;;5079968;28;20163;-68
2021/03/07 06:15:35;;;;;;;108.27;45.97;;;-0.10;95.40;;;;;;5096112;28;19908;-70
2021/03/07 06:18:10;;;;;;;104.23;44.93;;;-0.10;94.80;;;;;;5085129;28;20035;-69
2021/03/07 06:20:36;;;;;;;101.70;43.73;;;0.00;95.40;;;;;;5089115;28;20032;-64
2021/03/07 06:23:03;;;;;;;76.67;35.30;;;0.00;95.30;;;;;;5095123;28;20042;-68
2021/03/07 06:25:29;;;;;;;78.30;37.47;;;0.10;94.50;;;;;;5094695;28;20036;-70
2021/03/07 06:27:56;;;;;;;85.37;41.70;;;0.20;94.40;;;;;;5095867;28;20041;-69
2021/03/07 06:30:25;;;;;;;81.40;41.47;;;0.20;94.60;;;;;;5087365;28;20360;-70
2021/03/07 06:32:53;;;;;;;74.13;37.57;;;0.30;94.50;;;;;;5089493;28;20047;-68
2021/03/07 06:35:22;;;;;;;71.30;39.20;;;0.40;94.50;;;;;;5095301;28;20379;-67
2021/03/07 06:38:04;;;;;;;73.53;38.87;;;0.50;93.90;;;;;;5095606;28;20371;-70
2021/03/07 06:40:44;;;;;;;61.37;33.13;;;0.60;94.40;;;;;;5095639;28;20027;-65
2021/03/07 06:43:25;;;;;;;58.93;33.30;;;0.70;93.70;;;;;;5095485;28;20032;-69
2021/03/07 06:45:52;;;;;;;57.92;33.85;;;0.80;94.70;;;;;;5095550;28;20028;-69
2021/03/07 07:29:02;;;;;;;79.90;38.33;;;2.30;90.60;;;;;;5109974;27;20377;-64
2021/03/07 07:31:40;;;;;;;80.57;41.70;;;2.50;91.20;;;;;;5111078;28;20031;-66
2021/03/07 07:34:16;;;;;;;81.73;40.63;;;2.70;90.10;;;;;;5109737;28;20024;-67
2021/03/07 07:36:59;;;;;;;72.00;38.13;;;2.80;91.60;;;;;;5111276;28;20099;-67
2021/03/07 07:39:32;;;;;;;77.47;37.97;;;3.10;90.00;;;;;;5110960;28;20034;-67
2021/03/07 07:41:59;;;;;;;77.23;37.43;;;3.30;90.60;;;;;;5109286;28;20024;-66
2021/03/07 07:44:33;;;;;;;73.90;35.63;;;3.50;88.90;;;;;;5109523;28;20055;-70
2021/03/07 07:47:04;;;;;;;74.43;36.83;;;3.70;87.00;;;;;;5110772;28;20027;-69
2021/03/07 07:49:40;;;;;;;66.23;33.90;;;4.00;86.90;;;;;;5110730;28;20058;-68
2021/03/07 07:52:24;;;;;;;59.87;31.20;;;4.20;84.80;;;;;;5110588;28;20098;-69
2021/03/07 07:55:00;;;;;;;75.07;34.93;;;4.40;84.10;;;;;;5110990;28;20020;-67
2021/03/07 07:57:31;;;;;;;59.17;29.27;;;4.70;83.40;;;;;;5110621;28;20366;-65
2021/03/07 07:59:58;;;;;;;;;;;4.90;79.80;;;;;;5080391;28;20474;-64
2021/03/07 08:02:42;;;;;;;59.25;29.75;;;5.30;81.60;;;;;;5088174;28;19915;-66
2021/03/07 08:05:20;;;;;;;56.93;28.73;;;5.40;79.80;;;;;;5089993;28;20029;-64
2021/03/07 08:08:02;;;;;;;55.60;28.25;;;5.50;76.60;;;;;;5088559;28;20111;-64
2021/03/07 08:10:36;;;;;;;;;;;5.70;67.00;;;;;;5090643;28;20036;-63
2021/03/07 08:13:03;;;;;;;59.50;29.77;;;5.90;64.90;;;;;;5089799;28;19943;-65
2021/03/07 08:15:29;;;;;;;52.22;27.45;;;5.90;62.20;;;;;;5089796;28;20032;-64
2021/03/07 08:17:57;;;;;;;53.72;27.80;;;6.10;68.00;;;;;;5088429;28;20368;-65
2021/03/07 08:20:38;;;;;;;34.72;19.85;;;6.40;75.80;;;;;;5057667;28;20048;-66
2021/03/07 08:23:15;;;;;;;39.60;21.37;;;6.60;61.40;;;;;;5078895;28;20419;-63
2021/03/07 08:25:47;;;;;;;39.83;22.80;;;6.80;61.40;;;;;;5073067;28;20266;-62
2021/03/07 08:28:28;;;;;;;34.80;19.35;;;6.90;60.00;;;;;;5070642;28;20205;-62
2021/03/07 08:31:15;;;;;;;39.97;21.00;;;7.20;61.70;;;;;;5069180;28;20032;-63
2021/03/07 08:33:42;;;;;;;27.98;16.52;;;7.40;55.80;;;;;;5085503;28;20039;-62
2021/03/07 08:36:20;;;;;;;26.45;14.80;;;7.60;59.00;;;;;;5080588;28;20025;-61
2021/03/07 08:38:49;;;;;;;33.53;17.20;;;7.80;62.90;;;;;;5064822;28;20037;-62
2021/03/07 08:41:21;;;;;;;29.10;14.90;;;8.00;58.80;;;;;;5054786;28;20391;-62
2021/03/07 08:43:47;;;;;;;28.38;14.65;;;8.10;57.70;;;;;;5054576;28;20116;-62
2021/03/07 08:46:22;;;;;;;25.08;14.82;;;8.20;53.10;;;;;;5055471;28;20036;-62
2021/03/07 08:48:56;;;;;;;22.33;11.43;;;8.40;51.30;;;;;;5055638;28;20036;-63
2021/03/07 08:51:31;;;;;;;19.45;10.82;;;8.20;46.00;;;;;;5055689;28;20032;-62
2021/03/07 08:54:11;;;;;;;14.77;8.20;;;8.30;54.90;;;;;;5055359;28;20415;-60
2021/03/07 08:56:38;;;;;;;15.82;9.05;;;8.40;46.30;;;;;;5055531;28;20036;-61
2021/03/07 08:59:06;;;;;;;18.75;10.68;;;8.40;46.80;;;;;;5055537;28;20112;-61
2021/03/07 09:01:32;;;;;;;19.00;11.30;;;8.60;58.40;;;;;;5055744;28;20098;-62
2021/03/07 09:04:00;;;;;;;14.60;9.18;;;8.90;51.90;;;;;;5055487;28;20025;-63
2021/03/07 09:06:41;;;;;;;15.27;9.85;;;9.00;50.00;;;;;;5061701;28;20036;-63
2021/03/07 09:09:20;;;;;;;19.25;11.20;;;9.20;47.50;;;;;;5074570;28;20036;-61
2021/03/07 09:11:50;;;;;;;18.23;10.20;;;9.60;54.00;;;;;;5074046;28;20029;-62
2021/03/07 09:14:34;;;;;;;18.92;8.25;;;9.90;54.60;;;;;;5074162;28;20067;-62
2021/03/07 09:17:03;;;;;;;8.48;5.65;;;10.10;41.70;;;;;;5053663;28;20029;-61
2021/03/07 09:19:35;;;;;;;8.73;5.28;;;10.10;38.50;;;;;;5058565;28;20033;-61
2021/03/07 09:22:20;;;;;;;9.77;6.22;;;10.20;43.10;;;;;;5075058;28;20102;-62
2021/03/07 09:24:52;;;;;;;14.52;7.18;;;10.30;43.80;;;;;;5068689;28;20040;-62
2021/03/07 09:27:18;;;;;;;13.80;7.93;;;10.50;43.10;;;;;;5053252;28;20072;-62
2021/03/07 09:30:07;;;;;;;14.52;7.28;;;10.80;44.20;;;;;;5060931;28;20066;-62
2021/03/07 09:32:41;;;;;;;8.93;5.85;;;10.70;38.40;;;;;;5062144;28;20515;-61
2021/03/07 09:35:27;;;;;;;9.43;5.35;;;10.90;38.60;;;;;;5074605;28;20029;-62
2021/03/07 09:38:05;;;;;;;15.38;8.88;;;11.00;38.90;;;;;;5068351;28;20024;-60
2021/03/07 09:40:34;;;;;;;13.77;7.13;;;11.10;41.70;;;;;;5082204;28;20024;-60
2021/03/07 09:43:03;;;;;;;8.15;5.80;;;11.50;43.40;;;;;;5082601;28;20046;-60
2021/03/07 09:45:30;;;;;;;9.00;5.43;;;11.60;36.20;;;;;;5078107;28;20497;-60
2021/03/07 09:47:56;;;;;;;11.38;7.05;;;11.80;37.00;;;;;;5074372;28;20119;-60
2021/03/07 09:50:25;;;;;;;8.57;6.20;;;11.70;36.50;;;;;;5073235;28;20468;-60
2021/03/07 09:52:52;;;;;;;8.23;5.95;;;11.60;36.40;;;;;;5074370;28;20037;-61
2021/03/07 09:55:31;;;;;;;9.70;6.13;;;11.40;34.30;;;;;;5074010;28;20467;-61
2021/03/07 09:58:05;;;;;;;13.70;7.93;;;11.50;36.60;;;;;;5073511;28;20379;-62
2021/03/07 10:00:32;;;;;;;9.70;6.28;;;11.90;41.20;;;;;;5070494;28;20078;-61
2021/03/07 10:02:58;;;;;;;7.55;5.47;;;12.10;38.40;;;;;;5058996;28;20032;-61
2021/03/07 10:05:25;;;;;;;9.07;6.03;;;12.30;37.90;;;;;;5065606;28;20035;-62
2021/03/07 10:07:51;;;;;;;6.75;5.07;;;12.20;34.60;;;;;;5072860;28;20082;-62
2021/03/07 10:10:24;;;;;;;10.85;5.93;;;12.00;35.70;;;;;;5074473;28;20036;-61
2021/03/07 10:13:00;;;;;;;10.38;5.97;;;12.40;37.50;;;;;;5074168;28;20032;-61
2021/03/07 10:15:39;;;;;;;19.38;7.78;;;12.70;32.70;;;;;;5074016;28;20020;-61
2021/03/07 10:18:17;;;;;;;8.57;6.60;;;12.90;34.10;;;;;;5073961;28;20024;-62
2021/03/07 10:20:45;;;;;;;8.50;6.03;;;13.10;35.90;;;;;;5073971;28;20041;-61
2021/03/07 10:23:20;;;;;;;7.13;5.25;;;13.00;31.10;;;;;;5073371;28;20533;-62
2021/03/07 10:26:23;;;;;;;9.70;6.03;;;13.10;32.00;;;;;;5073234;28;20530;-61
2021/03/07 10:29:24;;;;;;;6.78;5.32;;;13.80;35.10;;;;;;5073334;28;20430;-61
2021/03/07 10:32:11;;;;;;;12.57;6.35;;;14.30;30.80;;;;;;5071354;28;20447;-61
2021/03/07 10:34:42;;;;;;;9.88;6.45;;;15.10;34.30;;;;;;5073237;28;20020;-61
2021/03/07 10:37:10;;;;;;;12.30;7.65;;;15.40;31.30;;;;;;5072396;28;20031;-61
2021/03/07 10:39:36;;;;;;;14.88;8.32;;;16.20;30.60;;;;;;5072412;28;20421;-60
2021/03/07 10:42:11;;;;;;;8.38;5.97;;;16.90;31.60;;;;;;5072125;28;20143;-62
2021/03/07 10:44:41;;;;;;;7.70;5.63;;;17.50;30.30;;;;;;5073554;28;20074;-61
2021/03/07 10:47:18;;;;;;;11.75;6.68;;;18.10;29.50;;;;;;5073653;28;20032;-61
2021/03/07 10:49:48;;;;;;;12.80;7.30;;;;;;;;;;5073204;28;20024;-60
2021/03/07 10:52:14;;;;;;;12.75;7.28;;;18.70;28.50;;;;;;5073309;28;20029;-62
2021/03/07 10:54:41;;;;;;;7.70;5.80;;;19.40;29.70;;;;;;5072077;28;20422;-61
2021/03/07 10:57:11;;;;;;;10.73;6.43;;;19.80;25.50;;;;;;5073424;28;20025;-61
2021/03/07 10:59:38;;;;;;;7.90;5.40;;;19.80;25.90;;;;;;5073675;28;20119;-61
2021/03/07 11:02:10;;;;;;;11.48;6.97;;;20.00;24.40;;;;;;5071770;28;20032;-61
2021/03/07 11:04:36;;;;;;;8.65;5.50;;;20.80;24.60;;;;;;5073357;28;20024;-61
2021/03/07 11:07:03;;;;;;;8.95;5.75;;;21.40;23.20;;;;;;5073436;28;20033;-61
2021/03/07 11:09:29;;;;;;;8.68;5.97;;;21.80;24.80;;;;;;5073123;28;20468;-62
2021/03/07 11:11:55;;;;;;;9.23;5.75;;;21.60;25.10;;;;;;5073026;28;20090;-61
2021/03/07 11:14:21;;;;;;;7.03;5.00;;;22.60;24.40;;;;;;5072749;28;20383;-62
2021/03/07 11:16:52;;;;;;;8.13;6.03;;;23.40;22.90;;;;;;5068899;28;20029;-61
2021/03/07 11:19:17;;;;;;;7.30;5.30;;;24.00;22.50;;;;;;5063928;28;20040;-61
2021/03/07 11:21:44;;;;;;;11.80;6.38;;;23.70;23.00;;;;;;5052844;28;20033;-61
2021/03/07 11:24:10;;;;;;;8.20;5.20;;;;;;;;;;5053022;28;20033;-61
2021/03/07 11:26:36;;;;;;;9.75;6.05;;;24.80;20.40;;;;;;5052508;28;20487;-63
2021/03/07 11:29:02;;;;;;;5.63;5.00;;;24.80;20.40;;;;;;5051659;28;20033;-62
2021/03/07 11:31:28;;;;;;;10.50;6.10;;;24.60;20.30;;;;;;5052767;28;20432;-61
2021/03/07 11:33:53;;;;;;;9.98;6.75;;;25.20;19.70;;;;;;5053128;28;20134;-62
2021/03/07 11:36:19;;;;;;;11.77;6.85;;;25.60;19.80;;;;;;5052822;28;20487;-62
2021/03/07 11:38:45;;;;;;;14.80;7.18;;;26.00;20.40;;;;;;5052926;28;20048;-62
2021/03/07 11:41:11;;;;;;;10.35;6.38;;;25.80;19.00;;;;;;5052904;28;20036;-61
2021/03/07 11:43:37;;;;;;;11.18;6.32;;;26.60;19.40;;;;;;5054642;28;20568;-62
2021/03/07 11:46:03;;;;;;;8.75;6.22;;;26.60;19.20;;;;;;5063244;28;20024;-62
2021/03/07 11:48:28;;;;;;;10.40;5.50;;;26.30;19.40;;;;;;5051633;28;20052;-61
2021/03/07 11:50:54;;;;;;;7.72;5.78;;;26.00;20.00;;;;;;5052261;28;20036;-61
2021/03/07 11:53:20;;;;;;;8.77;6.00;;;25.50;19.00;;;;;;5051912;28;20021;-61
2021/03/07 11:55:46;;;;;;;13.88;7.00;;;25.70;20.00;;;;;;5052469;28;20033;-61
2021/03/07 11:58:12;;;;;;;8.20;5.65;;;26.60;19.50;;;;;;5090203;28;20601;-61
2021/03/07 12:00:37;;;;;;;11.20;6.22;;;26.60;18.50;;;;;;5092578;28;20028;-61
2021/03/07 12:03:04;;;;;;;8.77;6.00;;;;;;;;;;5092233;28;20077;-61
2021/03/07 12:05:30;;;;;;;8.80;6.22;;;;;;;;;;5087175;28;20020;-61
2021/03/07 12:07:56;;;;;;;6.38;5.78;;;;;;;;;;5056110;28;20033;-62
2021/03/07 12:10:23;;;;;;;7.68;5.88;;;;;;;;;;5076834;28;20391;-61
2021/03/07 12:12:49;;;;;;;19.10;11.77;;;;;;;;;;5072572;28;20024;-63
2021/03/07 12:15:15;;;;;;;22.35;11.25;;;;;;;;;;5075134;28;20029;-63
2021/03/07 12:17:41;;;;;;;14.30;8.95;;;;;;;;;;5074928;28;20111;-62
2021/03/07 12:20:08;;;;;;;11.80;7.43;;;;;;;;;;5075980;28;20107;-62
2021/03/07 12:22:37;;;;;;;8.82;6.28;;;;;;;;;;5076102;28;20104;-62
2021/03/07 12:25:04;;;;;;;11.30;6.22;;;;;;;;;;5076131;28;20104;-64
2021/03/07 12:27:30;;;;;;;10.38;6.15;;;;;;;;;;5075922;28;20051;-63
2021/03/07 12:29:56;;;;;;;9.45;6.57;;;;;;;;;;5071317;28;20112;-63
2021/03/07 12:32:22;;;;;;;8.82;6.00;;;;;;;;;;5075981;28;20032;-62
2021/03/07 12:34:49;;;;;;;8.68;5.72;;;;;;;;;;5075756;28;20048;-62
2021/03/07 12:37:15;;;;;;;9.95;6.32;;;;;;;;;;5075890;28;20044;-62
2021/03/07 12:39:41;;;;;;;9.60;6.78;;;;;;;;;;5073244;28;20016;-62
2021/03/07 12:42:07;;;;;;;8.82;6.25;;;;;;;;;;5072775;28;20100;-62
2021/03/07 12:44:34;;;;;;;7.72;5.65;;;;;;;;;;5089609;28;20025;-62
2021/03/07 12:47:00;;;;;;;8.95;6.10;;;;;;;;;;5075013;28;20028;-61
2021/03/07 12:49:26;;;;;;;9.40;7.00;;;;;;;;;;5074570;28;20013;-62
2021/03/07 12:51:53;;;;;;;12.57;6.93;;;;;;;;;;5075009;28;20107;-61
2021/03/07 12:54:19;;;;;;;10.68;7.13;;;;;;;;;;5075157;28;20031;-62
2021/03/07 12:56:45;;;;;;;11.57;7.22;;;;;;;;;;5075645;28;20108;-61
2021/03/07 12:59:11;;;;;;;11.15;7.25;;;;;;;;;;5070859;28;20418;-62
2021/03/07 13:01:37;;;;;;;10.27;6.93;;;;;;;;;;5075458;28;20087;-63
2021/03/07 13:04:04;;;;;;;11.93;7.70;;;;;;;;;;5074136;28;20077;-64
2021/03/07 13:06:30;;;;;;;9.48;6.40;;;;;;;;;;5062310;28;20063;-62
2021/03/07 13:08:56;;;;;;;10.70;6.63;;;;;;;;;;5053416;28;20115;-62
2021/03/07 13:11:23;;;;;;;12.02;7.35;;;;;;;;;;5053652;28;20057;-62
2021/03/07 13:13:49;;;;;;;8.75;7.07;;;24.70;18.50;;;;;;5053097;28;20536;-63
2021/03/07 13:16:15;;;;;;;14.15;7.68;;;24.70;18.80;;;;;;5053855;28;20112;-62
2021/03/07 13:18:41;;;;;;;11.52;7.38;;;25.20;19.70;;;;;;5053403;28;20021;-63
2021/03/07 13:21:07;;;;;;;10.98;7.15;;;24.80;20.00;;;;;;5053632;28;20103;-63
2021/03/07 13:23:33;;;;;;;12.25;7.90;;;24.80;20.20;;;;;;5053751;28;20571;-63
2021/03/07 13:26:00;;;;;;;12.32;8.50;;;25.10;19.70;;;;;;5053769;28;20372;-62
2021/03/07 13:28:26;;;;;;;12.90;7.55;;;24.40;19.10;;;;;;5054387;28;20067;-61
2021/03/07 13:30:52;;;;;;;12.68;7.05;;;24.40;19.70;;;;;;5065822;28;20028;-61
2021/03/07 13:33:18;;;;;;;11.02;7.25;;;23.40;20.70;;;;;;5074079;28;20016;-60